Time;durP1;ratioP1;P1;durP2;ratioP2;P2;SDS_P1;SDS_P2;PMS_P1;PMS_P2;Temp;Humidity;BMP_temperature;BMP_pressure;BME280_temperature;BME280_humidity;BME280_pressure;Samples;Min_cycle;Max_cycle;Signal;HPM_P1;HPM_P2
2022/05/31 00:01:24;;;;;;;;;;;;;;;;;;4978701;28;19910;-28
2022/05/31 00:03:50;;;;;;;;;;;;;;;;;;4978402;28;19922;-28
2022/05/31 00:06:16;;;;;;;;;;;;;;;;;;4978649;28;19914;-27
2022/05/31 00:08:42;;;;;;;;;;;;;;;;;;4978780;28;20024;-28
2022/05/31 00:11:08;;;;;;;;;;;;;;;;;;4978844;28;20289;-28
2022/05/31 00:13:34;;;;;;;;;;;;;;;;;;4978420;28;20004;-28
2022/05/31 00:16:00;;;;;;;;;;;;;;;;;;4978747;28;19972;-28
2022/05/31 00:18:26;;;;;;;;;;;;;;;;;;4978436;28;19914;-28
2022/05/31 00:20:52;;;;;;;;;;;;;;;;;;4978375;28;20312;-28
2022/05/31 00:23:18;;;;;;;;;;;;;;;;;;4978274;28;19914;-28
2022/05/31 00:25:44;;;;;;;;;;;;;;;;;;4978242;28;19921;-28
2022/05/31 00:28:10;;;;;;;;;;;;;;;;;;4978188;28;20118;-28
2022/05/31 00:30:36;;;;;;;;;;;;;;;;;;4978440;28;19925;-28
2022/05/31 00:33:02;;;;;;;;;;;;;;;;;;4978090;28;19910;-28
2022/05/31 00:35:28;;;;;;;;;;;;;;;;;;4977151;28;19914;-27
2022/05/31 00:37:54;;;;;;;;;;;;;;;;;;4978364;28;19917;-28
2022/05/31 00:40:20;;;;;;;;;;;;;;;;;;4978042;28;20285;-28
2022/05/31 00:42:46;;;;;;;;;;;;;;;;;;4977934;28;19921;-27
2022/05/31 00:45:12;;;;;;;;;;;;;;;;;;4978194;28;19924;-27
2022/05/31 00:47:38;;;;;;;;;;;;;;;;;;4977900;28;19910;-28
2022/05/31 00:50:04;;;;;;;;;;;;;;;;;;4977690;28;19953;-27
2022/05/31 00:52:30;;;;;;;;;;;;;;;;;;4977393;28;20000;-28
2022/05/31 00:54:57;;;;;;;;;;;;;;;;;;4978008;28;19942;-28
2022/05/31 00:57:23;;;;;;;;;;;;;;;;;;4977737;28;19911;-27
2022/05/31 00:59:49;;;;;;;;;;;;;;;;;;4977723;28;19977;-28
2022/05/31 01:02:17;;;;;;;;;;;;;;;;;;4977517;28;20349;-28
2022/05/31 01:04:43;;;;;;;;;;;;;;;;;;4977357;28;19918;-28
2022/05/31 01:07:09;;;;;;;;;;;;;;;;;;4977808;28;19957;-28
2022/05/31 01:09:35;;;;;;;;;;;;;;;;;;4977423;28;19922;-27
2022/05/31 01:12:01;;;;;;;;;;;;;;;;;;4977603;28;20312;-28
2022/05/31 01:14:27;;;;;;;;;;;;;;;;;;4977415;28;19914;-28
2022/05/31 01:16:53;;;;;;;;;;;;;;;;;;4977229;28;20009;-28
2022/05/31 01:19:55;;;;;;;;;;;;;;;;;;4977579;28;20008;-27
2022/05/31 01:22:05;;;;;;;;;;;;;;;;;;4977087;28;19941;-28
2022/05/31 01:24:31;;;;;;;;;;;;;;;;;;4977215;28;20318;-27
2022/05/31 01:26:57;;;;;;;;;;;;;;;;;;4976223;28;19918;-28
2022/05/31 01:29:23;;;;;;;;;;;;;;;;;;4977029;28;19972;-27
2022/05/31 01:31:49;;;;;;;;;;;;;;;;;;4977003;28;19981;-27
2022/05/31 01:34:15;;;;;;;;;;;;;;;;;;4977307;28;19924;-27
2022/05/31 01:36:41;;;;;;;;;;;;;;;;;;4977237;28;20316;-28
2022/05/31 01:39:07;;;;;;;;;;;;;;;;;;4976950;28;19953;-28
2022/05/31 01:41:33;;;;;;;;;;;;;;;;;;4977154;28;20352;-28
2022/05/31 01:43:59;;;;;;;;;;;;;;;;;;4976814;28;19910;-28
2022/05/31 01:46:25;;;;;;;;;;;;;;;;;;4976838;28;19962;-28
2022/05/31 01:48:51;;;;;;;;;;;;;;;;;;4976745;28;19976;-28
2022/05/31 01:51:17;;;;;;;;;;;;;;;;;;4976768;28;20302;-28
2022/05/31 01:53:43;;;;;;;;;;;;;;;;;;4976707;28;19910;-28
2022/05/31 01:56:09;;;;;;;;;;;;;;;;;;4976925;28;20000;-28
2022/05/31 01:58:34;;;;;;;;;;;;;;;;;;4976609;28;19928;-28
2022/05/31 02:01:01;;;;;;;;;;;;;;;;;;4976622;28;19914;-28
2022/05/31 02:03:28;;;;;;;;;;;;;;;;;;4975539;28;19922;-28
2022/05/31 02:05:54;;;;;;;;;;;;;;;;;;4976825;28;19910;-28
2022/05/31 02:08:20;;;;;;;;;;;;;;;;;;4976715;28;20055;-28
2022/05/31 02:10:46;;;;;;;;;;;;;;;;;;4975579;28;19937;-28
2022/05/31 02:13:12;;;;;;;;;;;;;;;;;;4976373;28;19993;-27
2022/05/31 02:15:38;;;;;;;;;;;;;;;;;;4976693;28;19921;-28
2022/05/31 02:18:04;;;;;;;;;;;;;;;;;;4976405;28;19921;-27
2022/05/31 02:20:30;;;;;;;;;;;;;;;;;;4976397;28;19918;-28
2022/05/31 02:22:56;;;;;;;;;;;;;;;;;;4976627;28;19910;-28
2022/05/31 02:25:22;;;;;;;;;;;;;;;;;;4976341;28;19914;-28
2022/05/31 02:27:48;;;;;;;;;;;;;;;;;;4976864;28;19989;-28
2022/05/31 02:30:14;;;;;;;;;;;;;;;;;;4976296;28;19981;-28
2022/05/31 02:32:40;;;;;;;;;;;;;;;;;;4976246;28;20481;-28
2022/05/31 02:35:06;;;;;;;;;;;;;;;;;;4976283;28;19914;-28
2022/05/31 02:37:32;;;;;;;;;;;;;;;;;;4976558;28;19910;-28
2022/05/31 02:39:58;;;;;;;;;;;;;;;;;;4976295;28;19915;-28
2022/05/31 02:42:24;;;;;;;;;;;;;;;;;;4975241;28;19957;-28
2022/05/31 02:44:51;;;;;;;;;;;;;;;;;;4976450;28;20238;-28
2022/05/31 02:47:17;;;;;;;;;;;;;;;;;;4975259;28;20369;-28
2022/05/31 02:49:43;;;;;;;;;;;;;;;;;;4975114;28;19918;-28
2022/05/31 02:52:09;;;;;;;;;;;;;;;;;;4976069;28;19933;-28
2022/05/31 02:54:35;;;;;;;;;;;;;;;;;;4976084;28;20368;-28
2022/05/31 02:57:01;;;;;;;;;;;;;;;;;;4976118;28;19950;-28
2022/05/31 02:59:27;;;;;;;;;;;;;;;;;;4976089;28;19921;-27
2022/05/31 03:01:53;;;;;;;;;;;;;;;;;;4975969;28;19914;-28
2022/05/31 03:04:19;;;;;;;;;;;;;;;;;;4975842;28;20408;-28
2022/05/31 03:06:45;;;;;;;;;;;;;;;;;;4975962;28;20264;-28
2022/05/31 03:09:11;;;;;;;;;;;;;;;;;;4975905;28;19926;-29
2022/05/31 03:11:37;;;;;;;;;;;;;;;;;;4975961;28;19996;-28
2022/05/31 03:14:03;;;;;;;;;;;;;;;;;;4975839;28;19953;-28
2022/05/31 03:16:29;;;;;;;;;;;;;;;;;;4978628;28;19953;-28
2022/05/31 03:18:55;;;;;;;;;;;;;;;;;;4979792;28;19918;-28
2022/05/31 03:21:21;;;;;;;;;;;;;;;;;;4979742;28;20297;-28
2022/05/31 03:23:47;;;;;;;;;;;;;;;;;;4979314;28;19925;-28
2022/05/31 03:26:13;;;;;;;;;;;;;;;;;;4979687;28;19917;-28
2022/05/31 03:28:39;;;;;;;;;;;;;;;;;;4979257;28;20407;-28
2022/05/31 03:31:05;;;;;;;;;;;;;;;;;;4979273;28;19910;-28
2022/05/31 03:33:31;;;;;;;;;;;;;;;;;;4979249;28;19918;-28
2022/05/31 03:35:57;;;;;;;;;;;;;;;;;;4978259;28;20307;-27
2022/05/31 03:38:23;;;;;;;;;;;;;;;;;;4979115;28;19922;-28
2022/05/31 03:41:01;;;;;;;;;;;;;;;;;;4979631;28;19918;-27
2022/05/31 03:43:28;;;;;;;;;;;;;;;;;;4979239;28;19910;-28
2022/05/31 03:45:53;;;;;;;;;;;;;;;;;;4978053;28;19914;-28
2022/05/31 03:48:19;;;;;;;;;;;;;;;;;;4978914;28;20265;-28
2022/05/31 03:50:45;;;;;;;;;;;;;;;;;;4979078;28;20269;-28
2022/05/31 03:53:11;;;;;;;;;;;;;;;;;;4977798;28;19921;-28
2022/05/31 03:55:37;;;;;;;;;;;;;;;;;;4978760;28;19918;-28
2022/05/31 03:58:04;;;;;;;;;;;;;;;;;;4978752;28;19973;-28
2022/05/31 04:00:30;;;;;;;;;;;;;;;;;;4978586;28;19921;-28
2022/05/31 04:02:56;;;;;;;;;;;;;;;;;;4978453;28;19914;-28
2022/05/31 04:05:22;;;;;;;;;;;;;;;;;;4977292;28;19918;-28
2022/05/31 04:07:48;;;;;;;;;;;;;;;;;;4978325;28;19915;-28
2022/05/31 04:10:13;;;;;;;;;;;;;;;;;;4977132;28;19922;-28
2022/05/31 04:12:40;;;;;;;;;;;;;;;;;;4978104;28;20008;-28
2022/05/31 04:15:06;;;;;;;;;;;;;;;;;;4977275;28;20024;-28
2022/05/31 04:17:31;;;;;;;;;;;;;;;;;;4978274;28;19918;-28
2022/05/31 04:19:57;;;;;;;;;;;;;;;;;;4977266;28;19910;-28
2022/05/31 04:22:23;;;;;;;;;;;;;;;;;;4978022;28;19914;-28
2022/05/31 04:24:54;;;;;;;;;;;;;;;;;;4978360;28;19914;-28
2022/05/31 04:27:21;;;;;;;;;;;;;;;;;;4977768;28;19914;-28
2022/05/31 04:29:47;;;;;;;;;;;;;;;;;;4977951;28;19933;-28
2022/05/31 04:32:13;;;;;;;;;;;;;;;;;;4978150;28;20234;-28
2022/05/31 04:34:39;;;;;;;;;;;;;;;;;;4977043;28;19917;-28
2022/05/31 04:37:06;;;;;;;;;;;;;;;;;;4976914;28;19954;-28
2022/05/31 04:39:32;;;;;;;;;;;;;;;;;;4977841;28;19993;-27
2022/05/31 04:41:58;;;;;;;;;;;;;;;;;;4977790;28;19914;-28
2022/05/31 04:44:24;;;;;;;;;;;;;;;;;;4977694;28;20265;-27
2022/05/31 04:46:50;;;;;;;;;;;;;;;;;;4977750;28;20044;-27
2022/05/31 04:49:16;;;;;;;;;;;;;;;;;;4977695;28;19918;-28
2022/05/31 04:51:43;;;;;;;;;;;;;;;;;;4976467;28;19924;-28
2022/05/31 04:54:09;;;;;;;;;;;;;;;;;;4976457;28;19922;-28
2022/05/31 04:56:35;;;;;;;;;;;;;;;;;;4977412;28;19914;-28
2022/05/31 04:59:00;;;;;;;;;;;;;;;;;;4977318;28;19918;-28
2022/05/31 05:01:26;;;;;;;;;;;;;;;;;;4976413;28;19914;-28
2022/05/31 05:03:52;;;;;;;;;;;;;;;;;;4975963;28;20231;-28
2022/05/31 05:06:18;;;;;;;;;;;;;;;;;;4977222;28;19910;-28
2022/05/31 05:08:44;;;;;;;;;;;;;;;;;;4977351;28;19922;-31
2022/05/31 05:11:11;;;;;;;;;;;;;;;;;;4977274;28;19914;-28
2022/05/31 05:13:37;;;;;;;;;;;;;;;;;;4976108;28;19913;-27
2022/05/31 05:16:03;;;;;;;;;;;;;;;;;;4976177;28;19925;-27
2022/05/31 05:18:30;;;;;;;;;;;;;;;;;;4977584;28;19936;-27
2022/05/31 05:20:56;;;;;;;;;;;;;;;;;;4976888;28;20362;-28
2022/05/31 05:23:22;;;;;;;;;;;;;;;;;;4976855;28;19957;-27
2022/05/31 05:25:48;;;;;;;;;;;;;;;;;;4976860;28;20008;-28
2022/05/31 05:30:59;;;;;;;;;;;;;;;;;;4977100;28;19921;-28
2022/05/31 05:33:25;;;;;;;;;;;;;;;;;;4976544;28;19914;-28
2022/05/31 05:35:51;;;;;;;;;;;;;;;;;;4976500;28;20354;-28
2022/05/31 05:38:17;;;;;;;;;;;;;;;;;;4976520;28;20265;-24
2022/05/31 05:40:43;;;;;;;;;;;;;;;;;;4976760;28;20009;-24
2022/05/31 05:43:09;;;;;;;;;;;;;;;;;;4976303;28;19916;-24
2022/05/31 05:45:35;;;;;;;;;;;;;;;;;;4976396;28;19968;-24
2022/05/31 05:48:01;;;;;;;;;;;;;;;;;;4976308;28;19914;-24
2022/05/31 05:50:27;;;;;;;;;;;;;;;;;;4976433;28;19925;-25
2022/05/31 05:52:53;;;;;;;;;;;;;;;;;;4976276;28;19922;-27
2022/05/31 05:55:19;;;;;;;;;;;;;;;;;;4976223;28;19914;-25
2022/05/31 05:57:45;;;;;;;;;;;;;;;;;;4976574;28;19917;-25
2022/05/31 06:00:11;;;;;;;;;;;;;;;;;;4976212;28;19961;-25
2022/05/31 06:02:37;;;;;;;;;;;;;;;;;;4975251;28;19910;-25
2022/05/31 06:05:03;;;;;;;;;;;;;;;;;;4976244;28;19918;-24
2022/05/31 06:07:29;;;;;;;;;;;;;;;;;;4976580;28;19910;-25
2022/05/31 06:09:55;;;;;;;;;;;;;;;;;;4976275;28;19928;-24
2022/05/31 06:12:21;;;;;;;;;;;;;;;;;;4975310;28;19917;-25
2022/05/31 06:14:47;;;;;;;;;;;;;;;;;;4976668;28;20372;-25
2022/05/31 06:17:13;;;;;;;;;;;;;;;;;;4975345;28;19949;-24
2022/05/31 06:19:39;;;;;;;;;;;;;;;;;;4975287;28;20361;-24
2022/05/31 06:22:05;;;;;;;;;;;;;;;;;;4976057;28;19914;-24
2022/05/31 06:24:31;;;;;;;;;;;;;;;;;;4976156;28;19914;-24
2022/05/31 06:26:57;;;;;;;;;;;;;;;;;;4976133;28;19924;-27
2022/05/31 06:29:23;;;;;;;;;;;;;;;;;;4976033;28;19919;-24
2022/05/31 06:31:49;;;;;;;;;;;;;;;;;;4976355;28;19932;-24
2022/05/31 06:34:16;;;;;;;;;;;;;;;;;;4975163;28;19925;-24
2022/05/31 06:36:43;;;;;;;;;;;;;;;;;;4976086;28;19925;-24
2022/05/31 06:39:09;;;;;;;;;;;;;;;;;;4975893;28;20004;-26
2022/05/31 06:41:34;;;;;;;;;;;;;;;;;;4975890;28;19957;-26
2022/05/31 06:44:00;;;;;;;;;;;;;;;;;;4974929;28;20322;-24
2022/05/31 06:46:27;;;;;;;;;;;;;;;;;;4976040;28;19914;-24
2022/05/31 06:48:53;;;;;;;;;;;;;;;;;;4976484;28;20253;-25
2022/05/31 06:56:49;;;;;;;;;;;;;;;;;;4979680;28;20001;-29
2022/05/31 06:59:15;;;;;;;;;;;;;;;;;;4978610;28;19925;-26
2022/05/31 07:01:41;;;;;;;;;;;;;;;;;;4979429;28;20264;-27
2022/05/31 07:04:07;;;;;;;;;;;;;;;;;;4979233;28;20013;-28
2022/05/31 07:06:33;;;;;;;;;;;;;;;;;;4979392;28;19954;-24
2022/05/31 07:08:59;;;;;;;;;;;;;;;;;;4979532;28;19922;-24
2022/05/31 07:11:25;;;;;;;;;;;;;;;;;;4978296;28;19960;-24
2022/05/31 07:13:51;;;;;;;;;;;;;;;;;;4978031;28;19926;-25
2022/05/31 07:16:17;;;;;;;;;;;;;;;;;;4979170;28;19945;-27
2022/05/31 07:18:43;;;;;;;;;;;;;;;;;;4979255;28;19915;-26
2022/05/31 07:21:09;;;;;;;;;;;;;;;;;;4979143;28;19933;-24
2022/05/31 07:23:38;;;;;;;;;;;;;;;;;;4979105;28;19911;-25
2022/05/31 07:26:04;;;;;;;;;;;;;;;;;;4979104;28;19914;-24
2022/05/31 07:28:30;;;;;;;;;;;;;;;;;;4978999;28;19918;-24
2022/05/31 07:30:56;;;;;;;;;;;;;;;;;;4977934;28;19910;-28
2022/05/31 07:33:22;;;;;;;;;;;;;;;;;;4977673;28;19914;-24
2022/05/31 07:35:49;;;;;;;;;;;;;;;;;;4979429;28;19917;-29
2022/05/31 07:38:15;;;;;;;;;;;;;;;;;;4979148;28;19914;-24
2022/05/31 07:40:41;;;;;;;;;;;;;;;;;;4979008;28;19987;-25
2022/05/31 07:43:07;;;;;;;;;;;;;;;;;;4978591;28;19969;-24
2022/05/31 07:45:33;;;;;;;;;;;;;;;;;;4978727;28;19925;-29
2022/05/31 07:47:59;;;;;;;;;;;;;;;;;;4978628;28;19910;-26
2022/05/31 07:50:25;;;;;;;;;;;;;;;;;;4979159;28;19922;-25
2022/05/31 07:52:51;;;;;;;;;;;;;;;;;;4977397;28;19914;-25
2022/05/31 07:55:17;;;;;;;;;;;;;;;;;;4978666;28;19925;-24
2022/05/31 08:00:28;;;;;;;;;;;;;;;;;;4977110;28;20355;-26
2022/05/31 08:02:54;;;;;;;;;;;;;;;;;;4977394;28;19910;-24
2022/05/31 08:05:20;;;;;;;;;;;;;;;;;;4978208;28;19918;-24
2022/05/31 08:07:46;;;;;;;;;;;;;;;;;;4977214;28;20309;-24
2022/05/31 08:10:13;;;;;;;;;;;;;;;;;;4977305;28;19949;-24
2022/05/31 08:12:40;;;;;;;;;;;;;;;;;;4978270;28;20262;-24
2022/05/31 08:15:06;;;;;;;;;;;;;;;;;;4977155;28;19937;-24
2022/05/31 08:17:32;;;;;;;;;;;;;;;;;;4978307;28;19910;-28
2022/05/31 08:19:58;;;;;;;;;;;;;;;;;;4978163;28;19920;-27
2022/05/31 08:22:24;;;;;;;;;;;;;;;;;;4976898;28;19942;-29
2022/05/31 08:24:50;;;;;;;;;;;;;;;;;;4977837;28;19918;-25
2022/05/31 08:27:16;;;;;;;;;;;;;;;;;;4977934;28;19933;-25
2022/05/31 08:29:42;;;;;;;;;;;;;;;;;;4976867;28;19918;-25
2022/05/31 08:32:08;;;;;;;;;;;;;;;;;;4977801;28;19917;-28
2022/05/31 08:34:34;;;;;;;;;;;;;;;;;;4976692;28;19914;-24
2022/05/31 08:37:00;;;;;;;;;;;;;;;;;;4977626;28;19949;-26
2022/05/31 08:39:26;;;;;;;;;;;;;;;;;;4977739;28;19989;-24
2022/05/31 08:41:52;;;;;;;;;;;;;;;;;;4977492;28;20222;-23
2022/05/31 08:44:18;;;;;;;;;;;;;;;;;;4976744;28;20363;-25
2022/05/31 08:46:44;;;;;;;;;;;;;;;;;;4977623;28;19921;-26
2022/05/31 08:49:10;;;;;;;;;;;;;;;;;;4976492;28;20364;-24
2022/05/31 08:51:55;;;;;;;;;;;;;;;;;;4977488;28;20397;-23
2022/05/31 08:57:06;;;;;;;;;;;;;;;;;;4977674;28;19924;-24
2022/05/31 08:59:32;;;;;;;;;;;;;;;;;;4977640;28;20384;-24
2022/05/31 09:01:58;;;;;;;;;;;;;;;;;;4977541;28;19914;-29
2022/05/31 09:04:24;;;;;;;;;;;;;;;;;;4977032;28;19928;-24
2022/05/31 09:06:50;;;;;;;;;;;;;;;;;;4977418;28;20001;-26
2022/05/31 09:09:17;;;;;;;;;;;;;;;;;;4976991;28;19945;-25
2022/05/31 09:11:43;;;;;;;;;;;;;;;;;;4976556;28;20254;-23
2022/05/31 09:14:09;;;;;;;;;;;;;;;;;;4977265;28;19965;-24
2022/05/31 09:16:35;;;;;;;;;;;;;;;;;;4977304;28;19914;-27
2022/05/31 09:19:01;;;;;;;;;;;;;;;;;;4976950;28;19922;-25
2022/05/31 09:21:27;;;;;;;;;;;;;;;;;;4975754;28;19925;-24
2022/05/31 09:23:53;;;;;;;;;;;;;;;;;;4976670;28;20016;-24
2022/05/31 09:26:19;;;;;;;;;;;;;;;;;;4976745;28;19914;-24
2022/05/31 09:28:45;;;;;;;;;;;;;;;;;;4976426;28;19914;-25
2022/05/31 09:31:11;;;;;;;;;;;;;;;;;;4976825;28;19925;-24
2022/05/31 09:33:37;;;;;;;;;;;;;;;;;;4975559;28;19909;-24
2022/05/31 09:36:03;;;;;;;;;;;;;;;;;;4976917;28;19914;-25
2022/05/31 09:38:29;;;;;;;;;;;;;;;;;;4976851;28;19917;-25
2022/05/31 09:41:05;;;;;;;;;;;;;;;;;;4975448;28;19925;-25
2022/05/31 09:43:32;;;;;;;;;;;;;;;;;;4975948;28;19910;-23
2022/05/31 09:45:58;;;;;;;;;;;;;;;;;;4976428;28;19914;-28
2022/05/31 09:48:24;;;;;;;;;;;;;;;;;;4975189;28;19938;-26
2022/05/31 09:50:53;;;;;;;;;;;;;;;;;;4974670;28;20413;-24
2022/05/31 09:58:48;;;;;;;;;;;;;;;;;;4976483;28;19924;-24
2022/05/31 10:01:14;;;;;;;;;;;;;;;;;;4976252;28;19906;-23
2022/05/31 10:03:40;;;;;;;;;;;;;;;;;;4975915;28;19976;-24
2022/05/31 10:06:06;;;;;;;;;;;;;;;;;;4976264;28;20063;-23
2022/05/31 10:08:32;;;;;;;;;;;;;;;;;;4976269;28;19933;-24
2022/05/31 10:10:58;;;;;;;;;;;;;;;;;;4975039;28;19916;-31
2022/05/31 10:13:24;;;;;;;;;;;;;;;;;;4975893;28;19924;-24
2022/05/31 10:15:51;;;;;;;;;;;;;;;;;;4975853;28;19918;-24
2022/05/31 10:18:17;;;;;;;;;;;;;;;;;;4976650;28;19921;-25
2022/05/31 10:20:45;;;;;;;;;;;;;;;;;;4976005;28;19960;-25
2022/05/31 10:23:14;;;;;;;;;;;;;;;;;;4975284;28;19946;-24
2022/05/31 10:25:40;;;;;;;;;;;;;;;;;;4975586;28;19915;-25
2022/05/31 10:28:06;;;;;;;;;;;;;;;;;;4975780;28;19945;-24
2022/05/31 10:30:32;;;;;;;;;;;;;;;;;;4975864;28;19957;-26
2022/05/31 10:32:58;;;;;;;;;;;;;;;;;;4976131;28;19910;-31
2022/05/31 10:35:24;;;;;;;;;;;;;;;;;;4975704;28;19946;-27
2022/05/31 10:37:55;;;;;;;;;;;;;;;;;;4976174;28;19921;-24
2022/05/31 10:40:22;;;;;;;;;;;;;;;;;;4975002;28;19958;-24
2022/05/31 10:42:48;;;;;;;;;;;;;;;;;;4975613;28;19910;-25
2022/05/31 10:45:14;;;;;;;;;;;;;;;;;;4976045;28;20245;-27
2022/05/31 10:47:40;;;;;;;;;;;;;;;;;;4975888;28;19922;-24
2022/05/31 10:50:08;;;;;;;;;;;;;;;;;;4975602;28;19923;-24
2022/05/31 10:52:34;;;;;;;;;;;;;;;;;;4975550;28;19953;-24
2022/05/31 10:55:00;;;;;;;;;;;;;;;;;;4975823;28;19914;-27
2022/05/31 10:57:27;;;;;;;;;;;;;;;;;;4974673;28;20396;-23
2022/05/31 10:59:53;;;;;;;;;;;;;;;;;;4976550;28;19914;-25
2022/05/31 11:02:19;;;;;;;;;;;;;;;;;;4975936;28;19914;-24
2022/05/31 11:04:45;;;;;;;;;;;;;;;;;;4975507;28;19925;-24
2022/05/31 11:07:13;;;;;;;;;;;;;;;;;;4975646;28;20261;-24
2022/05/31 11:12:23;;;;;;;;;;;;;;;;;;4975557;28;19968;-24
2022/05/31 11:14:49;;;;;;;;;;;;;;;;;;4975654;28;19914;-26
2022/05/31 11:17:15;;;;;;;;;;;;;;;;;;4975793;28;19921;-24
2022/05/31 11:19:41;;;;;;;;;;;;;;;;;;4975460;28;19917;-25
2022/05/31 11:22:07;;;;;;;;;;;;;;;;;;4975416;28;20312;-25
2022/05/31 11:24:33;;;;;;;;;;;;;;;;;;4976324;28;19925;-28
2022/05/31 11:26:59;;;;;;;;;;;;;;;;;;4974311;28;19921;-26
2022/05/31 11:29:25;;;;;;;;;;;;;;;;;;4974264;28;19918;-27
2022/05/31 11:31:51;;;;;;;;;;;;;;;;;;4975300;28;19921;-24
2022/05/31 11:34:17;;;;;;;;;;;;;;;;;;4975266;28;20250;-24
2022/05/31 11:36:43;;;;;;;;;;;;;;;;;;4978276;28;19917;-24
2022/05/31 11:39:09;;;;;;;;;;;;;;;;;;4978128;28;19936;-24
2022/05/31 11:41:39;;;;;;;;;;;;;;;;;;4978978;28;20001;-25
2022/05/31 11:44:05;;;;;;;;;;;;;;;;;;4978544;28;19914;-24
2022/05/31 11:46:31;;;;;;;;;;;;;;;;;;4978352;28;19918;-25
2022/05/31 11:48:57;;;;;;;;;;;;;;;;;;4976972;28;19922;-24
2022/05/31 11:51:23;;;;;;;;;;;;;;;;;;4978414;28;19918;-25
2022/05/31 11:53:49;;;;;;;;;;;;;;;;;;4978312;28;19910;-25
2022/05/31 11:56:15;;;;;;;;;;;;;;;;;;4978360;28;19915;-24
2022/05/31 11:58:41;;;;;;;;;;;;;;;;;;4978487;28;19937;-24
2022/05/31 12:01:09;;;;;;;;;;;;;;;;;;4977502;28;20345;-24
2022/05/31 12:03:35;;;;;;;;;;;;;;;;;;4978132;28;19914;-24
2022/05/31 12:06:01;;;;;;;;;;;;;;;;;;4978749;28;20009;-27
2022/05/31 12:08:27;;;;;;;;;;;;;;;;;;4978112;28;20013;-24
2022/05/31 12:10:53;;;;;;;;;;;;;;;;;;4978397;28;19910;-26
2022/05/31 12:13:19;;;;;;;;;;;;;;;;;;4978111;28;20016;-25
2022/05/31 12:15:45;;;;;;;;;;;;;;;;;;4978383;28;19918;-26
2022/05/31 12:18:11;;;;;;;;;;;;;;;;;;4978182;28;20353;-25
2022/05/31 12:20:38;;;;;;;;;;;;;;;;;;4978386;28;19914;-27
2022/05/31 12:23:04;;;;;;;;;;;;;;;;;;4978031;28;19910;-26
2022/05/31 12:25:30;;;;;;;;;;;;;;;;;;4978352;28;19946;-25
2022/05/31 12:27:56;;;;;;;;;;;;;;;;;;4977996;28;19918;-27
2022/05/31 12:30:22;;;;;;;;;;;;;;;;;;4977763;28;19969;-30
2022/05/31 12:32:48;;;;;;;;;;;;;;;;;;4976836;28;19928;-25
2022/05/31 12:35:14;;;;;;;;;;;;;;;;;;4977899;28;20401;-26
2022/05/31 12:37:40;;;;;;;;;;;;;;;;;;4977722;28;19910;-25
2022/05/31 12:40:06;;;;;;;;;;;;;;;;;;4977758;28;19989;-26
2022/05/31 12:42:32;;;;;;;;;;;;;;;;;;4977761;28;19985;-25
2022/05/31 12:44:58;;;;;;;;;;;;;;;;;;4977575;28;19921;-24
2022/05/31 12:47:24;;;;;;;;;;;;;;;;;;4977037;28;19910;-25
2022/05/31 12:49:50;;;;;;;;;;;;;;;;;;4977672;28;19918;-24
2022/05/31 12:52:31;;;;;;;;;;;;;;;;;;4976527;28;20013;-24
2022/05/31 12:54:58;;;;;;;;;;;;;;;;;;4977832;28;19985;-24
2022/05/31 12:57:24;;;;;;;;;;;;;;;;;;4977705;28;19914;-28
2022/05/31 12:59:50;;;;;;;;;;;;;;;;;;4977360;28;19914;-30
2022/05/31 13:02:16;;;;;;;;;;;;;;;;;;4977582;28;20334;-28
2022/05/31 13:04:42;;;;;;;;;;;;;;;;;;4977349;28;19918;-26
2022/05/31 13:07:08;;;;;;;;;;;;;;;;;;4977618;28;19941;-25
2022/05/31 13:09:34;;;;;;;;;;;;;;;;;;4977401;28;19929;-24
2022/05/31 13:20:14;;;;;;;;;;;;;;;;;;4977518;28;19925;-24
2022/05/31 13:22:40;;;;;;;;;;;;;;;;;;4977023;28;19914;-25
2022/05/31 13:25:06;;;;;;;;;;;;;;;;;;4977141;28;20428;-24
2022/05/31 13:27:32;;;;;;;;;;;;;;;;;;4976941;28;19918;-23
2022/05/31 13:30:01;;;;;;;;;;;;;;;;;;4977222;28;19918;-28
2022/05/31 13:32:27;;;;;;;;;;;;;;;;;;4977251;28;20245;-24
2022/05/31 13:34:53;;;;;;;;;;;;;;;;;;4975971;28;19925;-24
2022/05/31 13:37:19;;;;;;;;;;;;;;;;;;4977158;28;19911;-25
2022/05/31 13:39:45;;;;;;;;;;;;;;;;;;4976730;28;19910;-24
2022/05/31 13:42:13;;;;;;;;;;;;;;;;;;4976621;28;19945;-24
2022/05/31 13:44:39;;;;;;;;;;;;;;;;;;4975422;28;19953;-23
2022/05/31 13:47:05;;;;;;;;;;;;;;;;;;4976441;28;19962;-24
2022/05/31 13:49:31;;;;;;;;;;;;;;;;;;4975534;28;19922;-24
2022/05/31 13:51:57;;;;;;;;;;;;;;;;;;4976781;28;19910;-23
2022/05/31 13:54:23;;;;;;;;;;;;;;;;;;4976464;28;19993;-24
2022/05/31 13:56:49;;;;;;;;;;;;;;;;;;4976604;28;19984;-26
2022/05/31 13:59:15;;;;;;;;;;;;;;;;;;4976622;28;19921;-25
2022/05/31 14:01:41;;;;;;;;;;;;;;;;;;4976470;28;19910;-25
2022/05/31 14:04:08;;;;;;;;;;;;;;;;;;4976095;28;19918;-24
2022/05/31 14:06:34;;;;;;;;;;;;;;;;;;4976596;28;20321;-26
2022/05/31 14:09:00;;;;;;;;;;;;;;;;;;4976634;28;20368;-24
2022/05/31 14:11:27;;;;;;;;;;;;;;;;;;4976399;28;19914;-23
2022/05/31 14:13:53;;;;;;;;;;;;;;;;;;4975345;28;19915;-24
2022/05/31 14:16:19;;;;;;;;;;;;;;;;;;4976571;28;19914;-23
2022/05/31 14:18:45;;;;;;;;;;;;;;;;;;4976306;28;19925;-26
2022/05/31 14:21:11;;;;;;;;;;;;;;;;;;4975295;28;19925;-26
2022/05/31 14:23:37;;;;;;;;;;;;;;;;;;4976210;28;19914;-23
2022/05/31 14:26:03;;;;;;;;;;;;;;;;;;4975222;28;19973;-25
2022/05/31 14:28:29;;;;;;;;;;;;;;;;;;4976483;28;19910;-23
2022/05/31 14:30:56;;;;;;;;;;;;;;;;;;4974996;28;20324;-24
2022/05/31 14:33:22;;;;;;;;;;;;;;;;;;4976102;28;20001;-24
2022/05/31 14:35:49;;;;;;;;;;;;;;;;;;4974989;28;19938;-24
2022/05/31 14:38:15;;;;;;;;;;;;;;;;;;4976305;28;20226;-24
2022/05/31 14:40:41;;;;;;;;;;;;;;;;;;4976355;28;19922;-24
2022/05/31 14:43:07;;;;;;;;;;;;;;;;;;4976019;28;19925;-25
2022/05/31 14:45:33;;;;;;;;;;;;;;;;;;4975103;28;19915;-23
2022/05/31 14:47:59;;;;;;;;;;;;;;;;;;4976081;28;19914;-24
2022/05/31 14:50:26;;;;;;;;;;;;;;;;;;4975986;28;19918;-23
2022/05/31 14:52:52;;;;;;;;;;;;;;;;;;4975028;28;19957;-24
2022/05/31 14:55:19;;;;;;;;;;;;;;;;;;4975072;28;19914;-24
2022/05/31 15:00:30;;;;;;;;;;;;;;;;;;4976220;28;19964;-27
2022/05/31 15:02:56;;;;;;;;;;;;;;;;;;4975755;28;19925;-24
2022/05/31 15:05:23;;;;;;;;;;;;;;;;;;4975516;28;20260;-25
2022/05/31 15:07:49;;;;;;;;;;;;;;;;;;4976110;28;20222;-24
2022/05/31 15:10:15;;;;;;;;;;;;;;;;;;4976963;28;19929;-26
2022/05/31 15:20:55;;;;;;;;;;;;;;;;;;4979461;28;19921;-23
2022/05/31 15:23:21;;;;;;;;;;;;;;;;;;4979754;28;19921;-26
2022/05/31 15:25:47;;;;;;;;;;;;;;;;;;4979581;28;20316;-23
2022/05/31 15:28:13;;;;;;;;;;;;;;;;;;4979386;28;19945;-24
2022/05/31 15:30:39;;;;;;;;;;;;;;;;;;4979435;28;19929;-25
2022/05/31 15:33:05;;;;;;;;;;;;;;;;;;4979194;28;19910;-23
2022/05/31 15:35:31;;;;;;;;;;;;;;;;;;4979180;28;19914;-25
2022/05/31 15:37:57;;;;;;;;;;;;;;;;;;4979415;28;20336;-23
2022/05/31 15:40:23;;;;;;;;;;;;;;;;;;4979011;28;19914;-26
2022/05/31 15:42:49;;;;;;;;;;;;;;;;;;4978916;28;20249;-26
2022/05/31 15:45:15;;;;;;;;;;;;;;;;;;4978089;28;20024;-24
2022/05/31 15:47:41;;;;;;;;;;;;;;;;;;4978990;28;19921;-24
2022/05/31 15:50:07;;;;;;;;;;;;;;;;;;4978980;28;19918;-25
2022/05/31 15:52:33;;;;;;;;;;;;;;;;;;4978810;28;19917;-25
2022/05/31 15:55:01;;;;;;;;;;;;;;;;;;4979461;28;19914;-27
2022/05/31 15:57:27;;;;;;;;;;;;;;;;;;4979138;28;19911;-24
2022/05/31 15:59:53;;;;;;;;;;;;;;;;;;4978692;28;19914;-30
2022/05/31 16:02:19;;;;;;;;;;;;;;;;;;4978823;28;20008;-27
2022/05/31 16:04:45;;;;;;;;;;;;;;;;;;4978448;28;19918;-25
2022/05/31 16:07:11;;;;;;;;;;;;;;;;;;4978798;28;19914;-26
2022/05/31 16:09:37;;;;;;;;;;;;;;;;;;4978351;28;19929;-24
2022/05/31 16:12:03;;;;;;;;;;;;;;;;;;4978282;28;19914;-25
2022/05/31 16:14:30;;;;;;;;;;;;;;;;;;4978420;28;20258;-26
2022/05/31 16:16:56;;;;;;;;;;;;;;;;;;4978089;28;19914;-24
2022/05/31 16:19:23;;;;;;;;;;;;;;;;;;4977212;28;19949;-25
2022/05/31 16:21:49;;;;;;;;;;;;;;;;;;4977158;28;19918;-23
2022/05/31 16:24:15;;;;;;;;;;;;;;;;;;4976982;28;19925;-25
2022/05/31 16:26:41;;;;;;;;;;;;;;;;;;4976960;28;19918;-26
2022/05/31 16:29:08;;;;;;;;;;;;;;;;;;4978074;28;20340;-26
2022/05/31 16:31:34;;;;;;;;;;;;;;;;;;4978101;28;19914;-25
2022/05/31 16:34:00;;;;;;;;;;;;;;;;;;4976866;28;19914;-24
2022/05/31 16:36:26;;;;;;;;;;;;;;;;;;4978046;28;19910;-23
2022/05/31 16:41:36;;;;;;;;;;;;;;;;;;4978075;28;19921;-26
2022/05/31 16:44:05;;;;;;;;;;;;;;;;;;4977471;28;19925;-24
2022/05/31 16:46:31;;;;;;;;;;;;;;;;;;4977533;28;19914;-24
2022/05/31 16:48:57;;;;;;;;;;;;;;;;;;4977437;28;19918;-25
2022/05/31 16:51:23;;;;;;;;;;;;;;;;;;4977537;28;19910;-23
2022/05/31 16:53:49;;;;;;;;;;;;;;;;;;4977469;28;19914;-26
2022/05/31 16:56:15;;;;;;;;;;;;;;;;;;4977679;28;19910;-24
2022/05/31 16:58:41;;;;;;;;;;;;;;;;;;4977450;28;19914;-24
2022/05/31 17:01:07;;;;;;;;;;;;;;;;;;4977743;28;19918;-24
2022/05/31 17:03:33;;;;;;;;;;;;;;;;;;4976996;28;19921;-24
2022/05/31 17:05:59;;;;;;;;;;;;;;;;;;4976332;28;20000;-28
2022/05/31 17:16:40;;;;;;;;;;;;;;;;;;4977248;28;20356;-24
2022/05/31 17:19:06;;;;;;;;;;;;;;;;;;4977248;28;19914;-23
2022/05/31 17:21:32;;;;;;;;;;;;;;;;;;4976915;28;19910;-25
2022/05/31 17:23:58;;;;;;;;;;;;;;;;;;4976791;28;20257;-24
2022/05/31 17:26:24;;;;;;;;;;;;;;;;;;4976752;28;20001;-23
2022/05/31 17:28:50;;;;;;;;;;;;;;;;;;4976798;28;20017;-24
2022/05/31 17:31:16;;;;;;;;;;;;;;;;;;4975785;28;20250;-25